Time;durP1;ratioP1;P1;durP2;ratioP2;P2;SDS_P1;SDS_P2;PMS_P1;PMS_P2;Temp;Humidity;BMP_temperature;BMP_pressure;BME280_temperature;BME280_humidity;BME280_pressure;Samples;Min_cycle;Max_cycle;Signal;HPM_P1;HPM_P2
2022/12/07 00:01:11;;;;;;;0.00;0.00;;;;;;;6.15;74.31;102231.16;7359780;19;20056;-52
2022/12/07 00:03:37;;;;;;;;;;;;;;;6.16;74.35;102225.09;7361409;19;20073;-54
2022/12/07 00:06:03;;;;;;;0.00;0.00;;;;;;;6.10;74.67;102219.81;7359461;19;19945;-50
2022/12/07 00:08:30;;;;;;;0.00;0.00;;;;;;;6.09;74.24;102221.53;7354449;19;20015;-53
2022/12/07 00:11:00;;;;;;;0.10;0.10;;;;;;;5.96;74.45;102194.47;7355379;19;20475;-55
2022/12/07 00:13:25;;;;;;;0.10;0.10;;;;;;;5.92;74.51;102197.81;7345225;19;20478;-56
2022/12/07 00:15:50;;;;;;;0.10;0.10;;;;;;;6.01;74.58;102212.72;7345184;19;20082;-51
2022/12/07 00:18:16;;;;;;;0.00;0.00;;;;;;;6.02;74.57;102213.56;7346715;19;20055;-54
2022/12/07 00:20:41;;;;;;;0.00;0.00;;;;;;;6.03;75.02;102220.50;7352612;19;20010;-56
2022/12/07 00:23:06;;;;;;;0.10;0.10;;;;;;;6.02;74.81;102208.38;7349398;19;20002;-56
2022/12/07 00:25:32;;;;;;;0.00;0.00;;;;;;;6.00;75.00;102210.97;7348091;19;20652;-53
2022/12/07 00:27:57;;;;;;;0.00;0.00;;;;;;;6.00;74.73;102204.91;7350219;19;20011;-53
2022/12/07 00:30:23;;;;;;;0.10;0.10;;;;;;;5.97;75.00;102201.38;7353116;19;20052;-53
2022/12/07 00:32:50;;;;;;;0.03;0.03;;;;;;;5.93;74.66;102193.50;7350974;19;20011;-52
2022/12/07 00:35:15;;;;;;;0.00;0.00;;;;;;;6.01;74.45;102209.25;7350091;19;20018;-51
2022/12/07 00:37:40;;;;;;;0.00;0.00;;;;;;;6.03;74.78;102202.34;7355549;19;20362;-53
2022/12/07 00:40:06;;;;;;;0.00;0.00;;;;;;;5.96;74.63;102194.47;7351106;19;20047;-55
2022/12/07 00:42:33;;;;;;;0.00;0.00;;;;;;;6.02;74.35;102192.84;7355829;19;20021;-53
2022/12/07 00:44:58;;;;;;;0.00;0.00;;;;;;;6.01;74.47;102201.47;7354545;19;20019;-53
2022/12/07 00:47:23;;;;;;;0.00;0.00;;;;;;;5.99;74.40;102198.84;7359465;19;21429;-56
2022/12/07 00:49:49;;;;;;;0.10;0.10;;;;;;;5.96;74.35;102189.28;7354320;19;20585;-56
2022/12/07 00:52:14;;;;;;;0.00;0.00;;;;;;;6.01;74.31;102196.28;7356475;19;20030;-53
2022/12/07 00:54:40;;;;;;;0.00;0.00;;;;;;;6.02;74.31;102198.03;7356122;19;20003;-55
2022/12/07 00:57:05;;;;;;;0.00;0.00;;;;;;;5.98;74.42;102187.59;7354149;19;20780;-53
2022/12/07 00:59:31;;;;;;;0.10;0.10;;;;;;;5.96;74.12;102178.03;7356589;19;20988;-54
2022/12/07 01:01:56;;;;;;;0.00;0.00;;;;;;;5.98;74.63;102182.41;7355101;19;20549;-53
2022/12/07 01:04:22;;;;;;;0.00;0.00;;;;;;;5.96;74.18;102178.91;7364672;19;20084;-54
2022/12/07 01:06:47;;;;;;;0.00;0.00;;;;;;;5.84;74.15;102163.09;7363341;19;20031;-55
2022/12/07 01:09:12;;;;;;;0.00;0.00;;;;;;;6.05;74.30;102192.91;7363418;19;20011;-53
2022/12/07 01:11:38;;;;;;;0.00;0.00;;;;;;;5.90;74.10;102168.38;7362329;19;20624;-55
2022/12/07 01:14:03;;;;;;;0.00;0.00;;;;;;;5.97;74.14;102172.88;7365406;19;20733;-53
2022/12/07 01:16:31;;;;;;;0.00;0.00;;;;;;;6.09;74.27;102199.91;7366104;19;20014;-55
2022/12/07 01:18:58;;;;;;;0.00;0.00;;;;;;;5.54;74.12;102100.25;7364724;19;20097;-54
2022/12/07 01:21:29;;;;;;;0.00;0.00;;;;;;;5.97;74.30;102170.28;7367303;19;20153;-54
2022/12/07 01:23:57;;;;;;;0.08;0.08;;;;;;;6.10;74.36;102186.09;7366974;19;20042;-53
2022/12/07 01:26:24;;;;;;;0.03;0.03;;;;;;;6.08;74.16;102172.19;7367460;19;20041;-55
2022/12/07 01:28:51;;;;;;;0.00;0.00;;;;;;;6.06;74.04;102171.31;7367335;19;20003;-56
2022/12/07 01:31:19;;;;;;;0.00;0.00;;;;;;;6.11;74.07;102172.28;7366427;19;20425;-55
2022/12/07 01:33:48;;;;;;;0.10;0.10;;;;;;;5.98;74.05;102161.69;7365056;19;20022;-56
2022/12/07 01:36:18;;;;;;;0.00;0.00;;;;;;;6.10;73.97;102167.94;7366819;19;20030;-53
2022/12/07 01:38:45;;;;;;;0.00;0.00;;;;;;;6.10;74.31;102170.53;7361192;19;20031;-56
2022/12/07 01:41:12;;;;;;;0.10;0.10;;;;;;;6.06;74.14;102163.53;7365347;19;20021;-55
2022/12/07 01:44:09;;;;;;;0.00;0.00;;;;;;;6.08;74.12;102154.91;7365775;19;20013;-55
2022/12/07 01:46:34;;;;;;;;;;;;;;;6.12;73.61;102163.63;7263599;19;2004453;-54
2022/12/07 01:49:03;;;;;;;0.00;0.00;;;;;;;6.07;73.62;102155.78;7365508;19;19923;-52
2022/12/07 01:51:29;;;;;;;0.00;0.00;;;;;;;6.00;73.86;102147.84;7365709;19;20527;-53
2022/12/07 01:53:54;;;;;;;0.00;0.00;;;;;;;5.86;73.80;102129.41;7366015;19;20010;-55
2022/12/07 01:56:26;;;;;;;0.08;0.08;;;;;;;5.90;74.11;102136.41;7365245;19;20023;-55
2022/12/07 01:58:52;;;;;;;0.00;0.00;;;;;;;5.72;73.79;102105.78;7360058;19;21034;-51
2022/12/07 02:01:18;;;;;;;0.10;0.10;;;;;;;5.99;74.11;102152.16;7364619;19;20044;-53
2022/12/07 02:03:44;;;;;;;0.00;0.00;;;;;;;5.98;74.12;102158.19;7361403;19;20789;-56
2022/12/07 02:06:16;;;;;;;0.00;0.00;;;;;;;5.86;73.69;102134.59;7364250;19;20018;-53
2022/12/07 02:08:42;;;;;;;0.10;0.10;;;;;;;5.80;73.57;102130.16;7363348;19;20459;-53
2022/12/07 02:11:09;;;;;;;0.00;0.00;;;;;;;5.93;73.51;102152.03;7361351;19;20867;-53
2022/12/07 02:13:36;;;;;;;0.00;0.00;;;;;;;5.94;73.28;102159.88;7361996;19;20031;-55
2022/12/07 02:16:23;;;;;;;0.10;0.10;;;;;;;5.96;73.37;102157.28;7364816;19;20676;-54
2022/12/07 02:18:55;;;;;;;0.00;0.00;;;;;;;5.94;73.45;102146.91;7263200;19;2004499;-56
2022/12/07 02:21:36;;;;;;;0.08;0.08;;;;;;;5.86;73.33;102137.19;7363219;19;20029;-54
2022/12/07 02:24:17;;;;;;;0.00;0.00;;;;;;;5.90;73.34;102142.47;7363501;19;20677;-54
2022/12/07 02:27:01;;;;;;;0.00;0.00;;;;;;;5.90;73.64;102150.22;7361974;19;20014;-55
2022/12/07 02:30:09;;;;;;;0.08;0.08;;;;;;;5.83;73.39;102130.22;7362107;19;20043;-54
2022/12/07 02:32:47;;;;;;;0.00;0.00;;;;;;;5.85;73.08;102138.91;7263567;19;2005347;-54
2022/12/07 02:35:24;;;;;;;0.00;0.00;;;;;;;5.85;73.50;102138.91;7362825;19;20011;-55
2022/12/07 02:38:10;;;;;;;0.00;0.00;;;;;;;5.82;73.12;102146.59;7360789;19;20019;-55
2022/12/07 02:40:44;;;;;;;0.10;0.10;;;;;;;5.61;72.98;102109.91;7359356;19;20010;-55
2022/12/07 02:43:19;;;;;;;0.00;0.00;;;;;;;5.77;73.25;102145.63;7363776;19;20882;-56
2022/12/07 02:45:46;;;;;;;0.00;0.00;;;;;;;5.73;73.68;102149.03;7364877;19;20745;-52
2022/12/07 02:48:15;;;;;;;0.00;0.00;;;;;;;5.72;73.65;102148.13;7364020;19;20023;-54
2022/12/07 02:50:52;;;;;;;0.10;0.10;;;;;;;5.71;73.36;102142.94;7363249;19;21063;-53
2022/12/07 02:53:38;;;;;;;0.00;0.00;;;;;;;5.59;73.35;102120.22;7355668;19;20028;-55
2022/12/07 02:56:28;;;;;;;0.10;0.10;;;;;;;5.70;73.35;102136.00;7363773;19;20020;-53
2022/12/07 02:59:09;;;;;;;0.00;0.00;;;;;;;5.68;73.05;102145.47;7352459;19;20007;-55
2022/12/07 03:01:37;;;;;;;0.00;0.00;;;;;;;5.66;73.51;102141.97;7362476;19;21159;-54
2022/12/07 03:04:35;;;;;;;0.00;0.00;;;;;;;5.67;73.54;102131.63;7361937;19;20058;-56
2022/12/07 03:07:08;;;;;;;0.00;0.00;;;;;;;5.64;73.33;102128.09;7259258;19;2004375;-53
2022/12/07 03:09:42;;;;;;;0.10;0.10;;;;;;;5.66;73.30;102134.19;7360395;19;20018;-54
2022/12/07 03:12:16;;;;;;;0.10;0.10;;;;;;;5.55;73.49;102109.78;7362902;19;20029;-54
2022/12/07 03:14:52;;;;;;;0.10;0.10;;;;;;;5.65;73.12;102130.72;7359584;19;20398;-52
2022/12/07 03:17:31;;;;;;;0.10;0.10;;;;;;;5.62;73.28;102122.88;7359367;19;20014;-55
2022/12/07 03:20:00;;;;;;;0.10;0.10;;;;;;;5.65;73.47;102130.72;7362443;19;20411;-54
2022/12/07 03:22:31;;;;;;;0.00;0.00;;;;;;;5.65;73.61;102127.25;7359522;19;20039;-54
2022/12/07 03:25:00;;;;;;;0.00;0.00;;;;;;;5.61;73.14;102126.31;7360526;19;20023;-56
2022/12/07 03:27:34;;;;;;;0.10;0.10;;;;;;;5.65;73.39;102124.66;7361011;19;20018;-57
2022/12/07 03:30:08;;;;;;;0.03;0.03;;;;;;;5.47;73.10;102094.97;7362523;19;20921;-54
2022/12/07 03:32:48;;;;;;;0.00;0.00;;;;;;;5.67;73.31;102122.97;7362063;19;20014;-54
2022/12/07 03:35:20;;;;;;;0.10;0.10;;;;;;;5.66;73.34;102126.41;7358397;19;20025;-56
2022/12/07 03:37:53;;;;;;;0.10;0.10;;;;;;;5.50;73.25;102093.25;7361206;19;20825;-53
2022/12/07 03:40:24;;;;;;;0.00;0.00;;;;;;;5.67;73.49;102117.78;7359238;19;20349;-54
2022/12/07 03:42:52;;;;;;;0.00;0.00;;;;;;;5.62;72.93;102114.22;7359236;19;20011;-54
2022/12/07 03:45:20;;;;;;;0.00;0.00;;;;;;;5.50;73.43;102095.84;7360435;19;20014;-54
2022/12/07 03:47:53;;;;;;;;;;;;;;;5.71;73.06;102119.59;7364007;19;20559;-56
2022/12/07 03:50:30;;;;;;;0.00;0.00;;;;;;;5.70;73.05;102126.50;7358350;19;22280;-54
2022/12/07 03:53:08;;;;;;;0.03;0.03;;;;;;;5.66;73.15;102116.03;7362403;19;20010;-54
2022/12/07 03:55:36;;;;;;;0.00;0.00;;;;;;;5.68;72.76;102119.56;7361348;19;20026;-53
2022/12/07 03:58:07;;;;;;;0.10;0.10;;;;;;;5.57;73.08;102097.72;7359938;19;20014;-54
2022/12/07 04:00:33;;;;;;;0.10;0.10;;;;;;;5.64;72.88;102116.03;7360549;19;20046;-55
2022/12/07 04:02:58;;;;;;;0.05;0.05;;;;;;;5.49;72.86;102086.34;7361895;19;20006;-55
2022/12/07 04:05:24;;;;;;;0.00;0.00;;;;;;;5.55;72.75;102096.81;7344806;19;20038;-54
2022/12/07 04:07:50;;;;;;;0.10;0.10;;;;;;;5.62;73.10;102109.91;7362067;19;20002;-55
2022/12/07 04:10:15;;;;;;;0.10;0.10;;;;;;;5.61;72.77;102104.72;7359423;19;20529;-51
2022/12/07 04:12:41;;;;;;;0.10;0.10;;;;;;;5.53;73.12;102089.03;7356754;19;20017;-53
2022/12/07 04:15:07;;;;;;;0.00;0.00;;;;;;;5.60;72.60;102100.38;7356908;19;20029;-54
2022/12/07 04:17:32;;;;;;;0.10;0.10;;;;;;;5.60;72.92;102095.19;7360799;19;20450;-50
2022/12/07 04:19:58;;;;;;;0.00;0.00;;;;;;;5.56;73.07;102095.97;7345457;19;20007;-52
2022/12/07 04:22:23;;;;;;;0.00;0.00;;;;;;;5.53;72.91;102093.34;7356114;19;20859;-51
2022/12/07 04:24:49;;;;;;;0.05;0.05;;;;;;;5.45;73.07;102085.38;7360458;19;20006;-55
2022/12/07 04:27:14;;;;;;;0.00;0.00;;;;;;;5.47;72.66;102089.78;7360265;19;20021;-55
2022/12/07 04:29:39;;;;;;;0.10;0.10;;;;;;;5.45;72.85;102091.44;7356673;19;20564;-53
2022/12/07 04:32:05;;;;;;;0.10;0.10;;;;;;;5.47;73.04;102094.97;7359699;19;20090;-55
2022/12/07 04:34:30;;;;;;;0.00;0.00;;;;;;;5.41;73.02;102089.63;7359187;19;20097;-51
2022/12/07 04:36:56;;;;;;;0.10;0.10;;;;;;;5.41;73.09;102088.75;7359043;19;20051;-54
2022/12/07 04:39:27;;;;;;;0.00;0.00;;;;;;;5.41;72.60;102094.81;7367694;19;20013;-52
2022/12/07 04:41:53;;;;;;;0.00;0.00;;;;;;;4.97;72.63;102017.91;7366569;19;20014;-53
2022/12/07 04:44:19;;;;;;;0.10;0.10;;;;;;;5.38;73.12;102089.59;7369604;19;20021;-56
2022/12/07 04:46:45;;;;;;;0.00;0.00;;;;;;;5.19;72.90;102062.41;7366543;19;20015;-54
2022/12/07 04:49:11;;;;;;;0.00;0.00;;;;;;;5.32;72.77;102083.38;7365807;19;20035;-54
2022/12/07 04:51:37;;;;;;;0.10;0.10;;;;;;;5.18;73.23;102060.66;7366041;19;20015;-53
2022/12/07 04:54:02;;;;;;;0.10;0.10;;;;;;;5.31;72.96;102081.63;7367767;19;20693;-52
2022/12/07 04:56:28;;;;;;;0.00;0.00;;;;;;;5.31;73.17;102081.63;7366451;19;20007;-55
2022/12/07 04:58:54;;;;;;;0.00;0.00;;;;;;;5.19;72.74;102062.41;7366766;19;20010;-56
2022/12/07 05:01:21;;;;;;;0.00;0.00;;;;;;;5.29;72.96;102079.03;7362973;19;20007;-52
2022/12/07 05:03:46;;;;;;;0.00;0.00;;;;;;;5.12;72.84;102052.78;7367075;19;21259;-54
2022/12/07 05:06:12;;;;;;;0.00;0.00;;;;;;;5.28;73.18;102077.28;7364925;19;20014;-54
2022/12/07 05:08:38;;;;;;;0.10;0.10;;;;;;;5.15;72.82;102059.72;7362868;19;20407;-53
2022/12/07 05:11:05;;;;;;;0.00;0.00;;;;;;;5.30;73.14;102079.91;7366602;19;20006;-56
2022/12/07 05:13:30;;;;;;;0.10;0.10;;;;;;;5.25;72.95;102065.97;7364842;19;20679;-54
2022/12/07 05:15:56;;;;;;;0.08;0.08;;;;;;;5.25;73.04;102066.84;7367857;19;20082;-54
2022/12/07 05:18:21;;;;;;;0.00;0.00;;;;;;;5.27;73.28;102074.63;7361217;19;20502;-56
2022/12/07 05:20:47;;;;;;;0.00;0.00;;;;;;;5.30;73.25;102080.75;7366565;19;20022;-55
2022/12/07 05:23:12;;;;;;;0.03;0.03;;;;;;;5.20;73.06;102060.69;7364197;19;20018;-52
2022/12/07 05:25:38;;;;;;;0.00;0.00;;;;;;;5.17;73.17;102058.03;7365996;19;20018;-52
2022/12/07 05:28:04;;;;;;;0.08;0.08;;;;;;;5.18;73.26;102057.22;7366201;19;20035;-52
2022/12/07 05:30:30;;;;;;;0.00;0.00;;;;;;;5.26;72.98;102071.19;7364420;19;20006;-53
2022/12/07 05:32:56;;;;;;;0.00;0.00;;;;;;;5.28;73.07;102073.81;7367650;19;20002;-54
2022/12/07 05:35:22;;;;;;;0.10;0.10;;;;;;;5.33;73.29;102075.66;7364711;19;20676;-55
2022/12/07 05:37:47;;;;;;;0.10;0.10;;;;;;;5.26;73.01;102060.81;7363413;19;20010;-54
2022/12/07 05:40:14;;;;;;;0.00;0.00;;;;;;;5.19;73.15;102052.06;7361914;19;20473;-53
2022/12/07 05:42:40;;;;;;;0.00;0.00;;;;;;;5.29;72.83;102068.66;7364955;19;20011;-56
2022/12/07 05:45:06;;;;;;;0.00;0.00;;;;;;;5.35;72.98;102073.09;7362604;19;20014;-52
2022/12/07 05:47:32;;;;;;;0.00;0.00;;;;;;;5.28;72.69;102061.75;7363630;19;20010;-54
2022/12/07 05:49:57;;;;;;;0.00;0.00;;;;;;;5.33;73.09;102065.31;7365803;19;20017;-55
2022/12/07 05:52:23;;;;;;;0.10;0.10;;;;;;;5.29;72.99;102058.31;7365024;19;20044;-53
2022/12/07 05:54:48;;;;;;;0.00;0.00;;;;;;;5.34;73.21;102061.00;7361066;19;20014;-54
2022/12/07 05:57:14;;;;;;;0.00;0.00;;;;;;;5.37;73.09;102061.94;7365920;19;20025;-55
2022/12/07 05:59:39;;;;;;;0.00;0.00;;;;;;;5.21;73.37;102039.13;7364382;19;20017;-54
2022/12/07 06:02:10;;;;;;;0.00;0.00;;;;;;;5.35;73.12;102057.56;7363693;19;20014;-56
2022/12/07 06:04:39;;;;;;;0.00;0.00;;;;;;;5.41;73.07;102063.72;7363457;19;20020;-56
2022/12/07 06:07:06;;;;;;;0.00;0.00;;;;;;;5.35;72.95;102057.56;7364277;19;20362;-56
2022/12/07 06:09:32;;;;;;;0.00;0.00;;;;;;;5.35;73.29;102053.25;7364457;19;20038;-55
2022/12/07 06:14:42;;;;;;;0.00;0.00;;;;;;;5.40;72.91;102061.97;7362044;19;20017;-55
2022/12/07 06:17:08;;;;;;;0.00;0.00;;;;;;;5.38;73.18;102053.31;7365726;19;21554;-52
2022/12/07 06:19:35;;;;;;;0.10;0.10;;;;;;;5.39;72.80;102055.06;7362483;19;20476;-55
2022/12/07 06:22:00;;;;;;;0.00;0.00;;;;;;;5.40;72.83;102048.16;7363845;19;20091;-54
2022/12/07 06:24:26;;;;;;;0.10;0.10;;;;;;;5.27;72.56;102036.69;7363406;19;20014;-56
2022/12/07 06:26:52;;;;;;;0.00;0.00;;;;;;;5.34;72.64;102048.91;7363967;19;20060;-54
2022/12/07 06:29:18;;;;;;;0.00;0.00;;;;;;;5.29;72.78;102047.06;7362765;19;20752;-55
2022/12/07 06:31:44;;;;;;;0.00;0.00;;;;;;;5.32;72.91;102042.84;7362928;19;20002;-55
2022/12/07 06:34:13;;;;;;;0.00;0.00;;;;;;;5.34;72.50;102050.63;7362256;19;20047;-52
2022/12/07 06:36:39;;;;;;;0.05;0.05;;;;;;;5.31;72.77;102051.44;7362026;19;20758;-55
2022/12/07 06:39:06;;;;;;;0.00;0.00;;;;;;;5.30;72.67;102044.50;7364215;19;20014;-52
2022/12/07 06:41:32;;;;;;;0.00;0.00;;;;;;;5.29;72.83;102042.75;7363698;19;20036;-55
2022/12/07 06:43:57;;;;;;;0.00;0.00;;;;;;;5.27;72.91;102044.47;7358928;19;20542;-54
2022/12/07 06:46:23;;;;;;;0.10;0.10;;;;;;;5.27;73.18;102054.81;7365207;19;20034;-54
2022/12/07 06:48:48;;;;;;;0.10;0.10;;;;;;;5.17;73.02;102043.41;7364319;19;20708;-53
2022/12/07 06:51:14;;;;;;;0.08;0.08;;;;;;;5.20;73.15;102047.75;7360618;19;20014;-56
2022/12/07 06:53:39;;;;;;;0.00;0.00;;;;;;;5.23;72.60;102057.31;7360847;19;22274;-56
2022/12/07 06:56:05;;;;;;;0.00;0.00;;;;;;;5.02;72.71;102024.03;7363303;19;20036;-55
2022/12/07 06:58:31;;;;;;;0.00;0.00;;;;;;;5.12;72.63;102041.53;7354783;19;20045;-56
2022/12/07 07:00:56;;;;;;;0.05;0.05;;;;;;;5.18;72.81;102049.44;7361669;19;20023;-55
2022/12/07 07:03:22;;;;;;;0.00;0.00;;;;;;;5.17;72.82;102055.44;7363672;19;20010;-56
2022/12/07 07:05:48;;;;;;;0.00;0.00;;;;;;;5.16;72.52;102051.09;7355148;19;20018;-54
2022/12/07 07:08:13;;;;;;;0.10;0.10;;;;;;;5.13;72.88;102048.47;7358954;19;20034;-53
2022/12/07 07:10:39;;;;;;;0.00;0.00;;;;;;;5.07;72.89;102045.72;7362221;19;20010;-55
2022/12/07 07:13:04;;;;;;;0.00;0.00;;;;;;;4.98;72.56;102025.72;7359372;19;20045;-55
2022/12/07 07:15:32;;;;;;;0.00;0.00;;;;;;;5.07;72.61;102044.03;7359627;19;20010;-54
2022/12/07 07:17:57;;;;;;;0.10;0.10;;;;;;;5.11;72.73;102053.59;7362045;19;20003;-56
2022/12/07 07:20:23;;;;;;;0.10;0.10;;;;;;;4.95;72.55;102031.69;7359766;19;20003;-54
2022/12/07 07:22:49;;;;;;;0.10;0.10;;;;;;;5.07;72.74;102046.63;7361684;19;20018;-55
2022/12/07 07:25:14;;;;;;;0.10;0.10;;;;;;;4.99;72.54;102030.03;7360394;19;20015;-57
2022/12/07 07:27:40;;;;;;;0.08;0.08;;;;;;;4.92;72.47;102025.59;7357592;19;20014;-53
2022/12/07 07:30:06;;;;;;;0.00;0.00;;;;;;;5.02;72.66;102042.16;7353212;19;20007;-54
2022/12/07 07:32:32;;;;;;;0.03;0.03;;;;;;;5.06;72.32;102049.16;7359475;19;20013;-55
2022/12/07 07:34:57;;;;;;;0.00;0.00;;;;;;;4.79;72.23;102008.91;7360547;19;20010;-53
2022/12/07 07:37:23;;;;;;;0.00;0.00;;;;;;;5.02;72.35;102043.06;7364135;19;20046;-53
2022/12/07 07:39:48;;;;;;;0.00;0.00;;;;;;;4.82;72.36;102014.16;7359530;19;20026;-55
2022/12/07 07:42:14;;;;;;;0.10;0.10;;;;;;;4.91;72.30;102037.63;7362863;19;20099;-55
2022/12/07 07:44:39;;;;;;;0.00;0.00;;;;;;;4.98;72.57;102042.97;7353966;19;20022;-56
2022/12/07 07:47:05;;;;;;;0.10;0.10;;;;;;;4.89;72.44;102039.31;7360901;19;20014;-54
2022/12/07 07:49:30;;;;;;;0.00;0.00;;;;;;;4.84;72.96;102038.34;7361828;19;20034;-54
2022/12/07 07:51:56;;;;;;;0.10;0.10;;;;;;;4.60;72.51;102005.03;7362187;19;20039;-52
2022/12/07 07:54:21;;;;;;;0.00;0.00;;;;;;;4.89;72.17;102062.63;7360498;19;20599;-54
2022/12/07 07:56:46;;;;;;;0.10;0.10;;;;;;;4.89;72.22;102062.63;7342919;19;20010;-55
2022/12/07 07:59:12;;;;;;;0.00;0.00;;;;;;;4.72;72.40;102032.03;7349183;19;20022;-56
2022/12/07 08:01:37;;;;;;;0.10;0.10;;;;;;;4.83;72.51;102049.53;7348790;19;20010;-56
2022/12/07 08:04:03;;;;;;;0.00;0.00;;;;;;;4.78;72.40;102058.06;7357990;19;20802;-55
2022/12/07 08:06:28;;;;;;;0.00;0.00;;;;;;;4.68;72.48;102041.44;7355399;19;20006;-53
2022/12/07 08:08:54;;;;;;;0.00;0.00;;;;;;;4.74;72.50;102058.81;7358108;19;20051;-53
2022/12/07 08:11:19;;;;;;;0.00;0.00;;;;;;;4.68;72.30;102049.19;7359759;19;20828;-55
2022/12/07 08:13:47;;;;;;;0.10;0.10;;;;;;;4.76;72.28;102068.34;7364575;19;20481;-56
2022/12/07 08:16:14;;;;;;;0.10;0.10;;;;;;;4.74;72.46;102072.63;7365835;19;20010;-55
2022/12/07 08:18:41;;;;;;;0.00;0.00;;;;;;;4.72;72.45;102076.91;7369455;19;20090;-52
2022/12/07 08:21:07;;;;;;;0.10;0.10;;;;;;;4.66;72.56;102059.53;7367044;19;20006;-54
2022/12/07 08:23:33;;;;;;;0.00;0.00;;;;;;;4.65;72.73;102068.09;7367014;19;20097;-56
2022/12/07 08:26:08;;;;;;;0.00;0.00;;;;;;;4.57;72.15;102045.50;7367436;19;20033;-52
2022/12/07 08:28:34;;;;;;;0.10;0.10;;;;;;;4.54;72.29;102053.16;7367970;19;21289;-55
2022/12/07 08:31:05;;;;;;;0.00;0.00;;;;;;;4.41;72.19;102042.53;7365555;19;21109;-54
2022/12/07 08:33:31;;;;;;;0.00;0.00;;;;;;;4.48;72.29;102058.22;7365774;19;20481;-53
2022/12/07 08:36:01;;;;;;;0.00;0.00;;;;;;;4.40;72.34;102056.28;7369017;19;20007;-54
2022/12/07 08:38:27;;;;;;;0.00;0.00;;;;;;;4.20;72.39;102031.66;7367498;19;20018;-54
2022/12/07 08:40:56;;;;;;;0.10;0.10;;;;;;;4.36;72.25;102058.78;7364115;19;24327;-54
2022/12/07 08:43:23;;;;;;;0.00;0.00;;;;;;;4.13;72.41;102025.47;7360699;19;20010;-53
2022/12/07 08:46:09;;;;;;;0.03;0.03;;;;;;;4.29;72.40;102055.16;7367331;19;22439;-54
2022/12/07 08:48:46;;;;;;;0.00;0.00;;;;;;;4.23;72.56;102057.59;7266749;19;2004359;-51
2022/12/07 08:51:13;;;;;;;0.00;0.00;;;;;;;4.19;72.84;102048.00;7369129;19;20094;-56
2022/12/07 08:53:39;;;;;;;0.10;0.10;;;;;;;4.19;72.43;102050.59;7366236;19;20023;-54
2022/12/07 08:56:06;;;;;;;0.00;0.00;;;;;;;4.18;72.75;102048.84;7369156;19;20522;-56
2022/12/07 08:58:33;;;;;;;0.10;0.10;;;;;;;4.09;72.70;102039.16;7366165;19;20022;-54
2022/12/07 09:00:59;;;;;;;0.10;0.10;;;;;;;4.12;73.04;102038.38;7368979;19;20569;-53
2022/12/07 09:03:24;;;;;;;0.10;0.10;;;;;;;4.18;73.01;102042.81;7365348;19;20017;-55
2022/12/07 09:05:50;;;;;;;0.00;0.00;;;;;;;4.05;72.97;102020.94;7368257;19;20048;-53
2022/12/07 09:08:16;;;;;;;0.10;0.10;;;;;;;4.20;72.71;102047.16;7362107;19;20028;-55
2022/12/07 09:10:41;;;;;;;0.10;0.10;;;;;;;4.14;73.05;102031.50;7364530;19;20007;-53
2022/12/07 09:13:07;;;;;;;0.10;0.10;;;;;;;3.94;72.46;101997.41;7361676;19;20010;-55
2022/12/07 09:15:32;;;;;;;0.10;0.10;;;;;;;4.09;72.45;102020.19;7357783;19;20738;-54
2022/12/07 09:17:58;;;;;;;0.00;0.00;;;;;;;4.22;72.82;102042.06;7362497;19;20014;-54
2022/12/07 09:20:23;;;;;;;0.10;0.10;;;;;;;3.68;72.62;101947.66;7368427;19;20010;-53
2022/12/07 09:22:49;;;;;;;0.00;0.00;;;;;;;4.32;72.52;102052.66;7364838;19;20021;-56
2022/12/07 09:25:14;;;;;;;0.00;0.00;;;;;;;4.26;72.75;102036.09;7366082;19;20009;-56
2022/12/07 09:27:41;;;;;;;0.10;0.10;;;;;;;4.18;72.87;102023.00;7365548;19;20111;-52
2022/12/07 09:30:07;;;;;;;0.10;0.10;;;;;;;4.38;72.82;102045.03;7365071;19;20018;-54
2022/12/07 09:32:32;;;;;;;0.00;0.00;;;;;;;4.35;72.78;102029.44;7366266;19;20014;-55
2022/12/07 09:34:58;;;;;;;0.00;0.00;;;;;;;4.45;73.09;102038.28;7366597;19;20506;-53
2022/12/07 09:37:23;;;;;;;0.00;0.00;;;;;;;4.52;72.87;102039.34;7368448;19;20034;-54
2022/12/07 09:39:48;;;;;;;0.00;0.00;;;;;;;4.54;72.95;102038.53;7364698;19;20632;-51
2022/12/07 09:42:32;;;;;;;0.00;0.00;;;;;;;4.68;72.82;102052.66;7365653;19;20047;-56
2022/12/07 09:44:59;;;;;;;0.00;0.00;;;;;;;4.67;72.72;102031.94;7364027;19;20011;-53
2022/12/07 09:47:25;;;;;;;0.00;0.00;;;;;;;4.75;72.88;102032.97;7367282;19;20513;-55
2022/12/07 09:49:50;;;;;;;0.10;0.10;;;;;;;4.87;73.01;102034.97;7367920;19;20031;-53
2022/12/07 09:52:20;;;;;;;0.10;0.10;;;;;;;4.95;72.57;102029.09;7363634;19;20018;-55
2022/12/07 09:54:49;;;;;;;0.00;0.00;;;;;;;4.92;72.57;102007.47;7364285;19;20472;-52
2022/12/07 09:57:15;;;;;;;0.10;0.10;;;;;;;5.13;72.83;102022.59;7365717;19;20018;-54
2022/12/07 09:59:41;;;;;;;0.00;0.00;;;;;;;5.26;72.41;102021.97;7361823;19;20031;-55
2022/12/07 10:02:34;;;;;;;0.03;0.03;;;;;;;5.46;72.40;102030.13;7366117;19;20007;-55
2022/12/07 10:05:00;;;;;;;0.05;0.05;;;;;;;5.59;72.06;102031.25;7263105;19;2004299;-52
2022/12/07 10:07:25;;;;;;;0.00;0.00;;;;;;;5.72;72.16;102009.91;7366986;19;20498;-56
2022/12/07 10:09:50;;;;;;;0.10;0.10;;;;;;;5.97;72.31;102019.88;7362746;19;22335;-56
2022/12/07 10:12:16;;;;;;;0.00;0.00;;;;;;;6.10;71.76;102002.84;7365441;19;20030;-54
2022/12/07 10:15:03;;;;;;;0.10;0.10;;;;;;;6.41;72.02;101993.81;7364762;19;20010;-56
2022/12/07 10:17:33;;;;;;;0.00;0.00;;;;;;;6.79;71.53;102006.44;7265254;19;2004753;-53
2022/12/07 10:20:21;;;;;;;0.00;0.00;;;;;;;7.13;72.14;102009.50;7363317;19;20788;-55
2022/12/07 10:23:13;;;;;;;0.10;0.10;;;;;;;7.35;71.35;102005.41;7365304;19;20470;-55
2022/12/07 10:25:40;;;;;;;0.10;0.10;;;;;;;7.58;69.91;102001.34;7263780;19;2004341;-56
2022/12/07 10:28:08;;;;;;;0.00;0.00;;;;;;;7.93;69.66;102004.31;7365450;19;20010;-55
2022/12/07 10:30:58;;;;;;;0.10;0.10;;;;;;;8.17;70.02;102002.78;7364878;19;20026;-56
2022/12/07 10:33:29;;;;;;;0.00;0.00;;;;;;;8.45;68.97;101991.72;7364664;19;20014;-56
2022/12/07 10:35:54;;;;;;;0.10;0.10;;;;;;;8.65;68.01;101989.25;7363163;19;20021;-56
2022/12/07 10:38:20;;;;;;;0.00;0.00;;;;;;;8.79;67.69;101966.78;7362168;19;20065;-56
2022/12/07 10:40:46;;;;;;;0.05;0.05;;;;;;;9.12;67.06;101983.41;7364415;19;20985;-54
2022/12/07 10:43:11;;;;;;;0.00;0.00;;;;;;;9.34;66.72;101981.75;7363756;19;20793;-56
2022/12/07 10:46:03;;;;;;;0.10;0.10;;;;;;;9.64;67.63;101980.09;7362970;19;20691;-57
2022/12/07 10:49:16;;;;;;;0.00;0.00;;;;;;;9.92;67.72;101980.97;7260780;19;2004348;-56
2022/12/07 10:52:19;;;;;;;0.00;0.00;;;;;;;10.11;66.88;101972.28;7258065;19;2004351;-56
2022/12/07 10:55:09;;;;;;;0.00;0.00;;;;;;;10.23;65.46;101974.00;7258136;19;2004074;-54
2022/12/07 10:57:55;;;;;;;0.03;0.03;;;;;;;10.32;65.51;101981.88;7365440;19;20041;-56
2022/12/07 11:00:25;;;;;;;0.00;0.00;;;;;;;10.31;64.28;101969.69;7361499;19;20115;-56
2022/12/07 11:03:09;;;;;;;0.10;0.10;;;;;;;10.42;66.25;101961.84;7363190;19;20734;-56
2022/12/07 11:05:43;;;;;;;0.10;0.10;;;;;;;10.46;65.17;101968.81;7365189;19;20018;-57
2022/12/07 11:08:32;;;;;;;0.10;0.10;;;;;;;10.62;66.39;101963.53;7363274;19;20768;-56
2022/12/07 11:11:11;;;;;;;0.08;0.08;;;;;;;10.76;65.21;101957.41;7362181;19;20026;-56
2022/12/07 11:13:59;;;;;;;0.10;0.10;;;;;;;10.94;64.82;101962.53;7365310;19;20017;-55
2022/12/07 11:16:35;;;;;;;0.08;0.08;;;;;;;11.13;64.48;101966.81;7363344;19;20017;-54
2022/12/07 11:19:35;;;;;;;0.00;0.00;;;;;;;11.35;65.61;101969.31;7363004;19;20035;-57
2022/12/07 11:22:45;;;;;;;0.05;0.05;;;;;;;11.61;65.25;101962.19;7261015;19;2004243;-56
2022/12/07 11:25:10;;;;;;;0.00;0.00;;;;;;;11.74;62.72;101959.50;7257095;19;2005967;-58
2022/12/07 11:28:04;;;;;;;0.00;0.00;;;;;;;12.03;63.89;101960.16;7363912;19;20014;-56
2022/12/07 11:30:39;;;;;;;0.00;0.00;;;;;;;12.29;63.22;101951.19;7253367;19;2004194;-57
2022/12/07 11:33:25;;;;;;;0.10;0.10;;;;;;;12.53;62.86;101950.94;7363807;19;20014;-57
2022/12/07 11:36:09;;;;;;;0.10;0.10;;;;;;;12.83;63.49;101959.34;7363720;19;20010;-57
2022/12/07 11:38:57;;;;;;;0.10;0.10;;;;;;;13.03;64.30;101935.47;7360784;19;20692;-57
2022/12/07 11:41:31;;;;;;;0.10;0.10;;;;;;;13.32;60.44;101948.25;7364522;19;20070;-57
2022/12/07 11:44:06;;;;;;;0.10;0.10;;;;;;;13.55;61.46;101940.91;7359878;19;20014;-56
2022/12/07 11:46:52;;;;;;;0.10;0.10;;;;;;;13.76;61.65;101940.56;7361149;19;20378;-57